Portada
METAR-TAF:

METAR-TAF

Aeropuertos :

Nimes, Francia

latitud: 43-45N, longitud: 004-25E, altitud: 94 m

Observación

El informe se hizo hace 32 minutos, a las 01:00 UTC
Viento 5 kt del noreste
Temperatura 7°C
Humedad 87%
Presión 1029 hPa
Visibilidad 10 km o más
sin nubes por debajo de 1500 m y sin presencia de cumulonimbus.

METAR: LFTW 020100Z AUTO 05005KT CAVOK 07/05 Q1029

Hora: 02:32 (01:32 UTC)

Pronóstico

El informe se hizo hace 11 horas y 32 minutos, a las 14:00 UTC
Pronóstico válido del 01 a las 15 UTC al 02 a las 15 UTC
Viento 10 kt del sur
Visibilidad 10 km o más
sin nubes por debajo de 1500 m y sin presencia de cumulonimbus.
Evolucionando progresivamente
del 01 a las 18 UTC al 01 a las 20 UTC
Viento 5 kt del norte
Evolucionando progresivamente
del 02 a las 12 UTC al 02 a las 14 UTC
Viento 10 kt del sureste

TAF: LFTW 011400Z 0115/0215 18010KT CAVOK BECMG 0118/0120 01005KT BECMG 0212/0214 13010KT

Observaciones y pronósticos meteorológicos de más de 4000 aeropuertos (mensajes METAR y TAF).

Los puntos amarillos y rojos representan las estaciones disponibles.

Ponga el ratón en el punto deseado para ver el nombre de la estación.

Haga clic para ver las observaciones y los pronósticos meteorológicos.

Para cambiar el mapa : haga clic en los botones verdes con una cruz de color negro para hacer un zoom, en el botón verde con un guión para alejar o en las flechas verdes para mapas adyacentes.


METAR-TAF: